createdAt,value
2022-10-22T00:00:52.800Z,1002.92
2022-10-22T00:01:52.789Z,1002.92
2022-10-22T00:02:52.828Z,1002.94
2022-10-22T00:03:53.650Z,1002.96
2022-10-22T00:04:52.743Z,1002.99
2022-10-22T00:05:52.752Z,1003.01
2022-10-22T00:06:52.749Z,1003.04
2022-10-22T00:07:52.688Z,1003.07
2022-10-22T00:08:52.784Z,1003.10
2022-10-22T00:09:52.705Z,1003.12
2022-10-22T00:10:52.679Z,1003.14
2022-10-22T00:11:52.658Z,1003.16
2022-10-22T00:12:52.665Z,1003.18
2022-10-22T00:13:52.658Z,1003.22
2022-10-22T00:14:52.635Z,1003.24
2022-10-22T00:15:52.681Z,1003.25
2022-10-22T00:16:52.608Z,1003.26
2022-10-22T00:17:52.592Z,1003.25
2022-10-22T00:18:52.587Z,1003.25
2022-10-22T00:19:52.627Z,1003.25
2022-10-22T00:20:52.578Z,1003.26
2022-10-22T00:21:52.622Z,1003.26
2022-10-22T00:23:52.563Z,1003.29
2022-10-22T00:24:52.543Z,1003.30
2022-10-22T00:25:52.537Z,1003.31
2022-10-22T00:26:52.500Z,1003.33
2022-10-22T00:27:52.522Z,1003.35
2022-10-22T00:28:52.491Z,1003.38
2022-10-22T00:29:52.473Z,1003.42
2022-10-22T00:30:52.449Z,1003.44
2022-10-22T00:31:52.507Z,1003.45
2022-10-22T00:32:52.432Z,1003.44
2022-10-22T00:33:52.481Z,1003.43
2022-10-22T00:34:52.457Z,1003.43
2022-10-22T00:35:52.449Z,1003.44
2022-10-22T00:36:52.377Z,1003.46
2022-10-22T00:37:52.378Z,1003.49
2022-10-22T00:38:52.424Z,1003.51
2022-10-22T00:39:52.407Z,1003.51
2022-10-22T00:40:52.390Z,1003.48
2022-10-22T00:41:52.341Z,1003.45
2022-10-22T00:42:52.343Z,1003.41
2022-10-22T00:43:52.387Z,1003.40
2022-10-22T00:44:52.291Z,1003.39
2022-10-22T00:45:52.368Z,1003.38
2022-10-22T00:46:52.299Z,1003.38
2022-10-22T00:47:52.306Z,1003.35
2022-10-22T00:48:53.072Z,1003.33
2022-10-22T00:49:52.303Z,1003.32
2022-10-22T00:50:52.235Z,1003.29
2022-10-22T00:51:52.268Z,1003.29
2022-10-22T00:52:52.208Z,1003.29
2022-10-22T00:53:52.221Z,1003.30
2022-10-22T00:54:52.248Z,1003.29
2022-10-22T00:55:52.189Z,1003.29
2022-10-22T00:56:52.185Z,1003.28
2022-10-22T00:57:52.223Z,1003.28
2022-10-22T00:58:52.186Z,1003.30
2022-10-22T00:59:52.176Z,1003.34
2022-10-22T01:00:52.198Z,1003.36
2022-10-22T01:01:52.196Z,1003.37
2022-10-22T01:02:52.171Z,1003.36
2022-10-22T01:03:52.215Z,1003.33
2022-10-22T01:04:52.141Z,1003.31
2022-10-22T01:05:52.119Z,1003.29
2022-10-22T01:06:52.156Z,1003.29
2022-10-22T01:07:52.097Z,1003.30
2022-10-22T01:08:52.087Z,1003.30
2022-10-22T01:09:52.125Z,1003.28
2022-10-22T01:10:52.081Z,1003.26
2022-10-22T01:11:52.058Z,1003.23
2022-10-22T01:12:52.009Z,1003.22
2022-10-22T01:13:52.041Z,1003.23
2022-10-22T01:14:52.009Z,1003.23
2022-10-22T01:15:52.133Z,1003.23
2022-10-22T01:16:52.008Z,1003.24
2022-10-22T01:17:52.008Z,1003.22
2022-10-22T01:18:52.026Z,1003.21
2022-10-22T01:19:51.958Z,1003.19
2022-10-22T01:20:51.947Z,1003.18
2022-10-22T01:21:52.084Z,1003.17
2022-10-22T01:22:51.931Z,1003.16
2022-10-22T01:23:51.928Z,1003.13
2022-10-22T01:24:51.928Z,1003.11
2022-10-22T01:25:51.904Z,1003.10
2022-10-22T01:26:51.899Z,1003.11
2022-10-22T01:27:51.970Z,1003.11
2022-10-22T01:28:51.911Z,1003.12
2022-10-22T01:29:51.857Z,1003.12
2022-10-22T01:30:51.846Z,1003.12
2022-10-22T01:31:51.813Z,1003.11
2022-10-22T01:32:51.856Z,1003.11
2022-10-22T01:33:51.853Z,1003.08
2022-10-22T01:34:51.789Z,1003.06
2022-10-22T01:35:51.816Z,1003.05
2022-10-22T01:36:51.804Z,1003.06
2022-10-22T01:37:51.866Z,1003.07
2022-10-22T01:38:51.759Z,1003.07
2022-10-22T01:39:51.808Z,1003.08
2022-10-22T01:40:51.743Z,1003.07
2022-10-22T01:41:51.719Z,1003.08
2022-10-22T01:42:51.693Z,1003.08
2022-10-22T01:43:51.722Z,1003.08
2022-10-22T01:44:51.710Z,1003.07
2022-10-22T01:45:51.743Z,1003.07
2022-10-22T01:46:51.664Z,1003.06
2022-10-22T01:47:51.660Z,1003.05
2022-10-22T01:48:51.623Z,1003.04
2022-10-22T01:49:51.639Z,1003.04
2022-10-22T01:50:51.597Z,1003.03
2022-10-22T01:51:51.637Z,1003.03
2022-10-22T01:52:51.611Z,1003.02
2022-10-22T01:53:51.594Z,1003.00
2022-10-22T01:54:51.558Z,1002.96
2022-10-22T01:55:51.602Z,1002.91
2022-10-22T01:56:51.544Z,1002.87
2022-10-22T01:57:51.571Z,1002.85
2022-10-22T01:58:51.533Z,1002.84
2022-10-22T01:59:51.508Z,1002.84
2022-10-22T02:00:51.561Z,1002.86
2022-10-22T02:01:51.509Z,1002.87
2022-10-22T02:02:51.492Z,1002.88
2022-10-22T02:03:51.520Z,1002.88
2022-10-22T02:04:51.473Z,1002.87
2022-10-22T02:05:51.449Z,1002.85
2022-10-22T02:06:51.446Z,1002.84
2022-10-22T02:07:51.461Z,1002.85
2022-10-22T02:08:51.459Z,1002.87
2022-10-22T02:09:51.453Z,1002.87
2022-10-22T02:10:51.383Z,1002.85
2022-10-22T02:11:51.430Z,1002.82
2022-10-22T02:12:51.388Z,1002.77
2022-10-22T02:13:51.393Z,1002.74
2022-10-22T02:14:51.351Z,1002.73
2022-10-22T02:15:51.414Z,1002.74
2022-10-22T02:16:51.346Z,1002.76
2022-10-22T02:17:51.382Z,1002.77
2022-10-22T02:18:51.336Z,1002.77
2022-10-22T02:19:51.335Z,1002.74
2022-10-22T02:20:51.355Z,1002.71
2022-10-22T02:21:51.395Z,1002.71
2022-10-22T02:22:51.303Z,1002.74
2022-10-22T02:23:51.290Z,1002.81
2022-10-22T02:24:51.282Z,1002.89
2022-10-22T02:25:51.279Z,1002.94
2022-10-22T02:26:51.333Z,1002.95
2022-10-22T02:27:51.317Z,1002.94
2022-10-22T02:28:51.237Z,1002.93
2022-10-22T02:29:51.253Z,1002.94
2022-10-22T02:30:51.331Z,1002.95
2022-10-22T02:31:51.242Z,1002.97
2022-10-22T02:32:51.170Z,1002.95
2022-10-22T02:33:51.226Z,1002.92
2022-10-22T02:34:51.143Z,1002.89
2022-10-22T02:35:51.152Z,1002.88
2022-10-22T02:36:51.188Z,1002.90
2022-10-22T02:37:51.159Z,1002.94
2022-10-22T02:38:51.123Z,1002.97
2022-10-22T02:39:51.163Z,1002.99
2022-10-22T02:40:51.972Z,1003.00
2022-10-22T02:41:51.097Z,1002.99
2022-10-22T02:42:51.070Z,1002.98
2022-10-22T02:43:51.061Z,1002.98
2022-10-22T02:44:51.064Z,1002.99
2022-10-22T02:45:51.087Z,1003.02
2022-10-22T02:46:51.058Z,1003.06
2022-10-22T02:47:51.038Z,1003.09
2022-10-22T02:48:51.781Z,1003.10
2022-10-22T02:49:51.072Z,1003.10
2022-10-22T02:50:50.993Z,1003.10
2022-10-22T02:51:51.014Z,1003.09
2022-10-22T02:52:50.963Z,1003.12
2022-10-22T02:53:50.965Z,1003.16
2022-10-22T02:54:50.948Z,1003.18
2022-10-22T02:55:50.944Z,1003.18
2022-10-22T02:56:50.904Z,1003.15
2022-10-22T02:57:50.957Z,1003.10
2022-10-22T02:58:50.889Z,1003.06
2022-10-22T02:59:50.936Z,1003.06
2022-10-22T03:00:50.906Z,1003.08
2022-10-22T03:01:50.887Z,1003.11
2022-10-22T03:02:50.855Z,1003.14
2022-10-22T03:03:50.861Z,1003.15
2022-10-22T03:04:50.828Z,1003.13
2022-10-22T03:05:50.847Z,1003.09
2022-10-22T03:06:50.823Z,1003.05
2022-10-22T03:07:50.860Z,1003.06
2022-10-22T03:08:50.825Z,1003.10
2022-10-22T03:09:50.916Z,1003.15
2022-10-22T03:10:50.779Z,1003.19
2022-10-22T03:11:50.818Z,1003.18
2022-10-22T03:12:50.804Z,1003.15
2022-10-22T03:13:50.787Z,1003.11
2022-10-22T03:14:50.789Z,1003.08
2022-10-22T03:15:50.764Z,1003.09
2022-10-22T03:16:50.727Z,1003.13
2022-10-22T03:17:50.691Z,1003.16
2022-10-22T03:18:50.819Z,1003.18
2022-10-22T03:19:50.718Z,1003.17
2022-10-22T03:20:50.672Z,1003.13
2022-10-22T03:21:50.671Z,1003.09
2022-10-22T03:22:51.624Z,1003.04
2022-10-22T03:23:50.658Z,1003.02
2022-10-22T03:24:50.650Z,1003.03
2022-10-22T03:25:50.677Z,1003.07
2022-10-22T03:26:50.609Z,1003.10
2022-10-22T03:27:50.674Z,1003.12
2022-10-22T03:28:50.616Z,1003.12
2022-10-22T03:29:50.549Z,1003.09
2022-10-22T03:30:50.580Z,1003.06
2022-10-22T03:31:50.577Z,1003.05
2022-10-22T03:32:50.547Z,1003.07
2022-10-22T03:33:50.557Z,1003.13
2022-10-22T03:34:50.587Z,1003.18
2022-10-22T03:35:50.489Z,1003.23
2022-10-22T03:36:50.511Z,1003.26
2022-10-22T03:37:50.461Z,1003.27
2022-10-22T03:38:50.481Z,1003.27
2022-10-22T03:39:50.498Z,1003.26
2022-10-22T03:40:50.450Z,1003.25
2022-10-22T03:41:50.415Z,1003.24
2022-10-22T03:42:50.418Z,1003.24
2022-10-22T03:43:50.406Z,1003.24
2022-10-22T03:44:50.432Z,1003.24
2022-10-22T03:45:50.975Z,1003.25
2022-10-22T03:46:50.394Z,1003.27
2022-10-22T03:47:50.374Z,1003.31
2022-10-22T03:48:50.422Z,1003.33
2022-10-22T03:49:50.359Z,1003.33
2022-10-22T03:50:50.380Z,1003.34
2022-10-22T03:51:50.376Z,1003.34
2022-10-22T03:52:50.328Z,1003.35
2022-10-22T03:53:50.332Z,1003.36
2022-10-22T03:54:50.308Z,1003.36
2022-10-22T03:55:50.288Z,1003.35
2022-10-22T03:56:50.301Z,1003.36
2022-10-22T03:57:50.294Z,1003.36
2022-10-22T03:58:50.392Z,1003.37
2022-10-22T03:59:50.247Z,1003.39
2022-10-22T04:00:50.303Z,1003.40
2022-10-22T04:01:50.267Z,1003.42
2022-10-22T04:02:50.216Z,1003.44
2022-10-22T04:03:50.352Z,1003.47
2022-10-22T04:04:50.204Z,1003.50
2022-10-22T04:05:50.171Z,1003.52
2022-10-22T04:06:50.196Z,1003.55
2022-10-22T04:07:50.158Z,1003.57
2022-10-22T04:08:50.187Z,1003.58
2022-10-22T04:09:50.149Z,1003.58
2022-10-22T04:10:50.153Z,1003.57
2022-10-22T04:11:50.118Z,1003.57
2022-10-22T04:12:50.166Z,1003.57
2022-10-22T04:13:50.175Z,1003.59
2022-10-22T04:14:50.115Z,1003.61
2022-10-22T04:15:50.074Z,1003.58
2022-10-22T04:16:50.084Z,1003.56
2022-10-22T04:17:50.042Z,1003.55
2022-10-22T04:18:50.050Z,1003.55
2022-10-22T04:19:50.322Z,1003.57
2022-10-22T04:20:50.059Z,1003.57
2022-10-22T04:21:50.021Z,1003.57
2022-10-22T04:22:50.039Z,1003.56
2022-10-22T04:23:49.993Z,1003.56
2022-10-22T04:25:49.966Z,1003.55
2022-10-22T04:26:50.129Z,1003.58
2022-10-22T04:27:49.950Z,1003.58
2022-10-22T04:28:49.947Z,1003.56
2022-10-22T04:29:49.943Z,1003.55
2022-10-22T04:30:49.901Z,1003.53
2022-10-22T04:31:49.910Z,1003.53
2022-10-22T04:32:49.985Z,1003.52
2022-10-22T04:33:49.886Z,1003.51
2022-10-22T04:34:49.863Z,1003.52
2022-10-22T04:35:49.887Z,1003.50
2022-10-22T04:36:49.875Z,1003.49
2022-10-22T04:37:50.018Z,1003.51
2022-10-22T04:38:49.862Z,1003.52
2022-10-22T04:39:49.832Z,1003.52
2022-10-22T04:40:49.851Z,1003.51
2022-10-22T04:41:49.849Z,1003.51
2022-10-22T04:42:49.780Z,1003.51
2022-10-22T04:43:49.820Z,1003.52
2022-10-22T04:44:49.834Z,1003.53
2022-10-22T04:45:49.854Z,1003.55
2022-10-22T04:46:49.770Z,1003.57
2022-10-22T04:47:49.757Z,1003.59
2022-10-22T04:48:49.728Z,1003.60
2022-10-22T04:49:49.788Z,1003.61
2022-10-22T04:50:49.800Z,1003.63
2022-10-22T04:51:49.709Z,1003.64
2022-10-22T04:52:49.696Z,1003.64
2022-10-22T04:53:49.753Z,1003.63
2022-10-22T04:54:49.652Z,1003.63
2022-10-22T04:55:49.678Z,1003.64
2022-10-22T04:56:49.697Z,1003.66
2022-10-22T04:57:49.649Z,1003.66
2022-10-22T04:58:49.651Z,1003.66
2022-10-22T04:59:49.622Z,1003.66
2022-10-22T05:00:49.640Z,1003.67
2022-10-22T05:01:49.621Z,1003.69
2022-10-22T05:02:49.620Z,1003.70
2022-10-22T05:03:49.588Z,1003.70
2022-10-22T05:04:49.575Z,1003.70
2022-10-22T05:05:49.551Z,1003.69
2022-10-22T05:06:49.544Z,1003.70
2022-10-22T05:07:49.530Z,1003.72
2022-10-22T05:08:49.583Z,1003.73
2022-10-22T05:09:49.546Z,1003.75
2022-10-22T05:10:50.155Z,1003.77
2022-10-22T05:13:15.472Z,1003.76
2022-10-22T05:13:46.321Z,1003.79
2022-10-22T05:14:20.349Z,1003.78
2022-10-22T05:15:20.289Z,1003.78
2022-10-22T05:16:20.293Z,1003.79
2022-10-22T05:17:20.272Z,1003.82
2022-10-22T05:18:22.521Z,1003.84
2022-10-22T05:19:20.263Z,1003.83
2022-10-22T05:20:20.280Z,1003.83
2022-10-22T05:21:20.233Z,1003.86
2022-10-22T05:22:20.231Z,1003.87
2022-10-22T05:23:20.206Z,1003.88
2022-10-22T05:24:20.214Z,1003.87
2022-10-22T05:25:20.185Z,1003.87
2022-10-22T05:26:20.236Z,1003.86
2022-10-22T05:27:20.180Z,1003.88
2022-10-22T05:28:20.172Z,1003.88
2022-10-22T05:29:20.150Z,1003.87
2022-10-22T05:30:20.159Z,1003.84
2022-10-22T05:31:20.129Z,1003.79
2022-10-22T05:32:20.153Z,1003.79
2022-10-22T05:33:23.986Z,1003.79
2022-10-22T05:34:20.109Z,1003.79
2022-10-22T05:35:20.081Z,1003.78
2022-10-22T05:36:20.090Z,1003.77
2022-10-22T05:37:20.093Z,1003.77
2022-10-22T05:38:20.070Z,1003.83
2022-10-22T05:39:20.037Z,1003.88
2022-10-22T05:40:30.466Z,1003.91
2022-10-22T05:41:20.034Z,1003.92
2022-10-22T05:42:20.027Z,1003.92
2022-10-22T05:43:20.165Z,1003.92
2022-10-22T05:44:20.005Z,1003.89
2022-10-22T05:45:19.975Z,1003.86
2022-10-22T05:46:22.893Z,1003.86
2022-10-22T05:47:19.959Z,1003.87
2022-10-22T05:48:20.016Z,1003.89
2022-10-22T05:49:19.972Z,1003.92
2022-10-22T05:50:19.934Z,1003.94
2022-10-22T05:51:19.924Z,1003.95
2022-10-22T05:52:19.929Z,1003.96
2022-10-22T05:53:19.892Z,1003.99
2022-10-22T05:54:19.913Z,1004.00
2022-10-22T05:55:19.946Z,1004.01
2022-10-22T05:56:19.873Z,1004.03
2022-10-22T05:57:19.853Z,1004.04
2022-10-22T05:58:19.858Z,1004.04
2022-10-22T05:59:19.837Z,1004.05
2022-10-22T06:00:19.817Z,1004.07
2022-10-22T06:01:19.845Z,1004.08
2022-10-22T06:02:19.853Z,1004.09
2022-10-22T06:03:19.787Z,1004.11
2022-10-22T06:04:19.790Z,1004.13
2022-10-22T06:05:19.820Z,1004.13
2022-10-22T06:06:19.777Z,1004.14
2022-10-22T06:07:19.774Z,1004.14
2022-10-22T06:08:19.753Z,1004.15
2022-10-22T06:09:19.730Z,1004.14
2022-10-22T06:10:19.724Z,1004.14
2022-10-22T06:11:19.707Z,1004.13
2022-10-22T06:12:19.706Z,1004.15
2022-10-22T06:13:19.721Z,1004.16
2022-10-22T06:14:19.683Z,1004.17
2022-10-22T06:15:19.666Z,1004.19
2022-10-22T06:16:19.679Z,1004.20
2022-10-22T06:17:19.643Z,1004.21
2022-10-22T06:18:19.639Z,1004.22
2022-10-22T06:19:19.777Z,1004.25
2022-10-22T06:20:19.684Z,1004.26
2022-10-22T06:21:19.643Z,1004.26
2022-10-22T06:22:19.678Z,1004.26
2022-10-22T06:23:19.583Z,1004.28
2022-10-22T06:24:19.587Z,1004.28
2022-10-22T06:25:19.597Z,1004.29
2022-10-22T06:26:19.579Z,1004.31
2022-10-22T06:27:19.577Z,1004.31
2022-10-22T06:28:19.586Z,1004.30
2022-10-22T06:29:19.547Z,1004.30
2022-10-22T06:30:19.579Z,1004.29
2022-10-22T06:31:19.619Z,1004.30
2022-10-22T06:32:19.503Z,1004.32
2022-10-22T06:33:19.522Z,1004.34
2022-10-22T06:34:19.525Z,1004.36
2022-10-22T06:35:19.479Z,1004.38
2022-10-22T06:36:19.456Z,1004.40
2022-10-22T06:37:19.535Z,1004.42
2022-10-22T06:38:19.471Z,1004.43
2022-10-22T06:39:19.561Z,1004.44
2022-10-22T06:40:19.414Z,1004.45
2022-10-22T06:41:19.381Z,1004.46
2022-10-22T06:42:19.477Z,1004.48
2022-10-22T06:43:19.511Z,1004.49
2022-10-22T06:44:19.469Z,1004.52
2022-10-22T06:45:19.341Z,1004.54
2022-10-22T06:46:20.181Z,1004.55
2022-10-22T06:47:19.323Z,1004.57
2022-10-22T06:48:19.324Z,1004.56
2022-10-22T06:49:19.328Z,1004.57
2022-10-22T06:50:19.303Z,1004.60
2022-10-22T06:51:19.279Z,1004.63
2022-10-22T06:52:19.283Z,1004.63
2022-10-22T06:54:19.261Z,1004.64
2022-10-22T06:55:19.262Z,1004.67
2022-10-22T06:56:19.241Z,1004.68
2022-10-22T06:57:19.233Z,1004.71
2022-10-22T06:58:19.227Z,1004.72
2022-10-22T06:59:19.197Z,1004.74
2022-10-22T07:00:19.240Z,1004.75
2022-10-22T07:01:19.271Z,1004.78
2022-10-22T07:02:19.177Z,1004.80
2022-10-22T07:03:19.155Z,1004.81
2022-10-22T07:04:19.160Z,1004.81
2022-10-22T07:05:19.238Z,1004.81
2022-10-22T07:06:19.138Z,1004.81
2022-10-22T07:07:19.165Z,1004.82
2022-10-22T07:08:19.119Z,1004.83
2022-10-22T07:10:19.096Z,1004.87
2022-10-22T07:11:19.084Z,1004.89
2022-10-22T07:12:19.117Z,1004.89
2022-10-22T07:13:19.050Z,1004.90
2022-10-22T07:14:19.058Z,1004.90
2022-10-22T07:15:19.031Z,1004.91
2022-10-22T07:16:19.041Z,1004.94
2022-10-22T07:17:19.007Z,1004.96
2022-10-22T07:18:19.031Z,1004.97
2022-10-22T07:19:18.992Z,1005.00
2022-10-22T07:20:18.989Z,1005.03
2022-10-22T07:21:18.984Z,1005.04
2022-10-22T07:22:18.969Z,1005.06
2022-10-22T07:23:18.988Z,1005.05
2022-10-22T07:24:18.953Z,1005.07
2022-10-22T07:25:18.921Z,1005.07
2022-10-22T07:26:18.947Z,1005.07
2022-10-22T07:27:18.902Z,1005.09
2022-10-22T07:28:18.908Z,1005.10
2022-10-22T07:29:18.905Z,1005.13
2022-10-22T07:30:18.900Z,1005.16
2022-10-22T07:31:18.867Z,1005.18
2022-10-22T07:32:22.939Z,1005.22
2022-10-22T07:33:18.843Z,1005.22
2022-10-22T07:35:18.824Z,1005.25
2022-10-22T07:36:18.828Z,1005.24
2022-10-22T07:37:18.797Z,1005.27
2022-10-22T07:38:18.798Z,1005.31
2022-10-22T07:39:18.775Z,1005.31
2022-10-22T07:40:18.793Z,1005.33
2022-10-22T07:41:18.771Z,1005.34
2022-10-22T07:42:18.820Z,1005.33
2022-10-22T07:43:18.797Z,1005.36
2022-10-22T07:44:18.746Z,1005.37
2022-10-22T07:45:18.745Z,1005.37
2022-10-22T07:46:18.709Z,1005.40
2022-10-22T07:47:18.703Z,1005.37
2022-10-22T07:48:18.689Z,1005.37
2022-10-22T07:49:18.669Z,1005.37
2022-10-22T07:50:18.676Z,1005.36
2022-10-22T07:51:18.682Z,1005.38
2022-10-22T07:52:18.655Z,1005.38
2022-10-22T07:53:18.641Z,1005.41
2022-10-22T07:54:18.628Z,1005.43
2022-10-22T07:55:18.602Z,1005.42
2022-10-22T07:56:18.704Z,1005.41
2022-10-22T07:57:18.584Z,1005.42
2022-10-22T07:58:18.614Z,1005.46
2022-10-22T07:59:18.563Z,1005.47
2022-10-22T08:00:20.594Z,1005.49
2022-10-22T08:01:18.628Z,1005.51
2022-10-22T08:02:18.582Z,1005.51
2022-10-22T08:03:18.532Z,1005.51
2022-10-22T08:04:18.520Z,1005.52
2022-10-22T08:05:18.506Z,1005.53
2022-10-22T08:06:18.504Z,1005.53
2022-10-22T08:07:18.519Z,1005.53
2022-10-22T08:08:18.798Z,1005.51
2022-10-22T08:09:18.459Z,1005.56
2022-10-22T08:10:18.472Z,1005.53
2022-10-22T08:11:18.440Z,1005.52
2022-10-22T08:12:18.435Z,1005.54
2022-10-22T08:13:18.418Z,1005.55
2022-10-22T08:14:18.438Z,1005.59
2022-10-22T08:15:18.394Z,1005.59
2022-10-22T08:16:18.400Z,1005.60
2022-10-22T08:17:18.382Z,1005.58
2022-10-22T08:18:18.375Z,1005.61
2022-10-22T08:19:18.492Z,1005.60
2022-10-22T08:20:18.358Z,1005.61
2022-10-22T08:21:18.365Z,1005.62
2022-10-22T08:22:18.338Z,1005.63
2022-10-22T08:23:18.324Z,1005.61
2022-10-22T08:24:18.309Z,1005.72
2022-10-22T08:25:18.320Z,1005.68
2022-10-22T08:26:18.293Z,1005.69
2022-10-22T08:27:18.266Z,1005.74
2022-10-22T08:28:21.206Z,1005.70
2022-10-22T08:29:18.244Z,1005.71
2022-10-22T08:30:18.254Z,1005.71
2022-10-22T08:31:18.251Z,1005.71
2022-10-22T08:32:18.303Z,1005.70
2022-10-22T08:33:18.202Z,1005.73
2022-10-22T08:34:18.211Z,1005.76
2022-10-22T08:35:18.184Z,1005.79
2022-10-22T08:36:18.202Z,1005.79
2022-10-22T08:37:18.181Z,1005.81
2022-10-22T08:38:18.180Z,1005.82
2022-10-22T08:39:18.171Z,1005.84
2022-10-22T08:40:18.130Z,1005.86
2022-10-22T08:41:18.129Z,1005.86
2022-10-22T08:42:18.139Z,1005.91
2022-10-22T08:43:18.108Z,1005.90
2022-10-22T08:44:18.084Z,1005.91
2022-10-22T08:45:18.087Z,1005.89
2022-10-22T08:46:18.081Z,1005.88
2022-10-22T08:47:21.382Z,1005.89
2022-10-22T08:48:18.067Z,1005.92
2022-10-22T08:49:18.103Z,1005.91
2022-10-22T08:50:18.024Z,1005.90
2022-10-22T08:51:18.067Z,1005.87
2022-10-22T08:52:18.026Z,1005.92
2022-10-22T08:53:18.041Z,1005.93
2022-10-22T08:54:17.986Z,1005.94
2022-10-22T08:55:18.003Z,1005.96
2022-10-22T08:56:17.965Z,1005.96
2022-10-22T08:57:17.984Z,1005.97
2022-10-22T08:58:17.945Z,1005.99
2022-10-22T08:59:17.962Z,1006.01
2022-10-22T09:00:17.917Z,1006.05
2022-10-22T09:01:17.953Z,1006.06
2022-10-22T09:02:17.900Z,1006.08
2022-10-22T09:03:17.919Z,1006.04
2022-10-22T09:04:17.914Z,1006.05
2022-10-22T09:05:17.880Z,1006.04
2022-10-22T09:06:17.855Z,1006.07
2022-10-22T09:07:17.864Z,1006.10
2022-10-22T09:08:17.852Z,1006.09
2022-10-22T09:09:17.960Z,1006.14
2022-10-22T09:10:17.854Z,1006.11
2022-10-22T09:11:17.817Z,1006.15
2022-10-22T09:12:20.225Z,1006.15
2022-10-22T09:13:17.849Z,1006.13
2022-10-22T09:14:17.795Z,1006.15
2022-10-22T09:15:17.835Z,1006.17
2022-10-22T09:16:17.747Z,1006.19
2022-10-22T09:17:17.749Z,1006.19
2022-10-22T09:18:17.725Z,1006.24
2022-10-22T09:19:17.750Z,1006.23
2022-10-22T09:20:17.720Z,1006.24
2022-10-22T09:21:17.732Z,1006.24
2022-10-22T09:22:17.683Z,1006.27
2022-10-22T09:23:17.700Z,1006.27
2022-10-22T09:24:17.666Z,1006.27
2022-10-22T09:25:17.669Z,1006.27
2022-10-22T09:26:17.698Z,1006.28
2022-10-22T09:27:17.649Z,1006.29
2022-10-22T09:28:17.657Z,1006.36
2022-10-22T09:29:17.625Z,1006.39
2022-10-22T09:30:17.689Z,1006.35
2022-10-22T09:31:17.619Z,1006.33
2022-10-22T09:32:17.617Z,1006.35
2022-10-22T09:33:21.309Z,1006.33
2022-10-22T09:34:17.561Z,1006.36
2022-10-22T09:35:17.568Z,1006.32
2022-10-22T09:36:17.620Z,1006.32
2022-10-22T09:37:17.575Z,1006.35
2022-10-22T09:38:17.517Z,1006.32
2022-10-22T09:39:17.548Z,1006.34
2022-10-22T09:40:17.680Z,1006.34
2022-10-22T09:41:17.496Z,1006.32
2022-10-22T09:42:17.480Z,1006.33
2022-10-22T09:43:17.544Z,1006.31
2022-10-22T09:44:17.456Z,1006.31
2022-10-22T09:45:17.460Z,1006.32
2022-10-22T09:46:17.436Z,1006.35
2022-10-22T09:47:17.441Z,1006.33
2022-10-22T09:48:17.431Z,1006.35
2022-10-22T09:49:17.418Z,1006.38
2022-10-22T09:50:17.399Z,1006.37
2022-10-22T09:51:17.403Z,1006.38
2022-10-22T09:52:17.380Z,1006.41
2022-10-22T09:53:17.368Z,1006.46
2022-10-22T09:54:17.364Z,1006.40
2022-10-22T09:55:17.356Z,1006.42
2022-10-22T09:56:17.367Z,1006.45
2022-10-22T09:57:17.340Z,1006.47
2022-10-22T09:58:17.305Z,1006.49
2022-10-22T09:59:17.332Z,1006.50
2022-10-22T10:00:17.286Z,1006.49
2022-10-22T10:01:17.287Z,1006.51
2022-10-22T10:02:37.046Z,1006.54
2022-10-22T10:03:17.321Z,1006.55
2022-10-22T10:04:17.325Z,1006.60
2022-10-22T10:05:17.258Z,1006.54
2022-10-22T10:06:17.304Z,1006.61
2022-10-22T10:07:17.226Z,1006.58
2022-10-22T10:08:17.195Z,1006.63
2022-10-22T10:09:17.277Z,1006.61
2022-10-22T10:10:17.208Z,1006.64
2022-10-22T10:11:17.181Z,1006.66
2022-10-22T10:12:17.155Z,1006.70
2022-10-22T10:13:17.164Z,1006.72
2022-10-22T10:14:17.129Z,1006.75
2022-10-22T10:15:17.134Z,1006.78
2022-10-22T10:16:17.151Z,1006.77
2022-10-22T10:17:17.114Z,1006.78
2022-10-22T10:18:17.103Z,1006.79
2022-10-22T10:19:17.106Z,1006.79
2022-10-22T10:20:17.069Z,1006.80
2022-10-22T10:21:17.118Z,1006.81
2022-10-22T10:22:17.047Z,1006.81
2022-10-22T10:23:18.592Z,1006.85
2022-10-22T10:24:17.066Z,1006.85
2022-10-22T10:25:17.029Z,1006.82
2022-10-22T10:26:17.008Z,1006.83
2022-10-22T10:27:17.028Z,1006.86
2022-10-22T10:28:16.983Z,1006.89
2022-10-22T10:29:16.994Z,1006.91
2022-10-22T10:30:16.963Z,1006.90
2022-10-22T10:31:16.962Z,1006.91
2022-10-22T10:32:20.999Z,1006.93
2022-10-22T10:33:16.951Z,1006.95
2022-10-22T10:34:16.927Z,1007.02
2022-10-22T10:35:16.932Z,1006.96
2022-10-22T10:36:16.896Z,1006.99
2022-10-22T10:37:16.901Z,1006.97
2022-10-22T10:38:16.902Z,1007.00
2022-10-22T10:39:16.890Z,1006.97
2022-10-22T10:40:16.862Z,1006.99
2022-10-22T10:41:16.912Z,1007.02
2022-10-22T10:42:16.840Z,1007.01
2022-10-22T10:43:16.910Z,1006.99
2022-10-22T10:44:16.817Z,1006.96
2022-10-22T10:45:16.829Z,1006.97
2022-10-22T10:47:16.830Z,1006.96
2022-10-22T10:48:16.770Z,1006.96
2022-10-22T10:49:16.825Z,1006.96
2022-10-22T10:50:16.749Z,1006.97
2022-10-22T10:51:16.753Z,1006.96
2022-10-22T10:52:19.025Z,1006.96
2022-10-22T10:53:16.733Z,1006.98
2022-10-22T10:54:16.755Z,1006.94
2022-10-22T10:55:16.711Z,1006.96
2022-10-22T10:56:16.689Z,1006.94
2022-10-22T10:57:16.691Z,1006.99
2022-10-22T10:58:16.668Z,1006.99
2022-10-22T10:59:16.693Z,1006.96
2022-10-22T11:00:16.687Z,1006.96
2022-10-22T11:01:16.741Z,1006.98
2022-10-22T11:02:16.621Z,1007.01
2022-10-22T11:03:16.646Z,1007.03
2022-10-22T11:04:16.603Z,1007.02
2022-10-22T11:05:16.618Z,1007.02
2022-10-22T11:06:17.844Z,1007.03
2022-10-22T11:07:33.564Z,1007.03
2022-10-22T11:08:16.567Z,1007.04
2022-10-22T11:09:16.591Z,1007.07
2022-10-22T11:10:16.549Z,1007.13
2022-10-22T11:12:16.551Z,1007.06
2022-10-22T11:13:16.530Z,1007.11
2022-10-22T11:14:16.492Z,1007.11
2022-10-22T11:15:16.512Z,1007.10
2022-10-22T11:16:16.478Z,1007.14
2022-10-22T11:17:16.506Z,1007.11
2022-10-22T11:18:16.489Z,1007.12
2022-10-22T11:19:22.720Z,1007.13
2022-10-22T11:20:16.439Z,1007.13
2022-10-22T11:21:16.446Z,1007.15
2022-10-22T11:22:16.428Z,1007.17
2022-10-22T11:23:20.151Z,1007.16
2022-10-22T11:24:16.473Z,1007.15
2022-10-22T11:25:16.396Z,1007.17
2022-10-22T11:26:16.367Z,1007.18
2022-10-22T11:27:16.379Z,1007.17
2022-10-22T11:28:16.370Z,1007.20
2022-10-22T11:29:16.353Z,1007.19
2022-10-22T11:30:16.407Z,1007.17
2022-10-22T11:31:16.339Z,1007.18
2022-10-22T11:32:16.306Z,1007.18
2022-10-22T11:33:16.322Z,1007.19
2022-10-22T11:34:32.654Z,1007.20
2022-10-22T11:35:16.307Z,1007.17
2022-10-22T11:36:16.316Z,1007.17
2022-10-22T11:37:16.266Z,1007.20
2022-10-22T11:38:16.252Z,1007.18
2022-10-22T11:39:16.250Z,1007.17
2022-10-22T11:40:16.238Z,1007.20
2022-10-22T11:41:16.227Z,1007.20
2022-10-22T11:42:16.234Z,1007.23
2022-10-22T11:43:16.217Z,1007.24
2022-10-22T11:44:16.178Z,1007.21
2022-10-22T11:45:16.186Z,1007.19
2022-10-22T11:46:16.161Z,1007.21
2022-10-22T11:47:16.176Z,1007.22
2022-10-22T11:48:16.165Z,1007.22
2022-10-22T11:49:16.153Z,1007.24
2022-10-22T11:50:16.115Z,1007.24
2022-10-22T11:51:16.127Z,1007.29
2022-10-22T11:52:16.093Z,1007.30
2022-10-22T11:53:16.099Z,1007.33
2022-10-22T11:54:16.119Z,1007.32
2022-10-22T11:55:16.079Z,1007.29
2022-10-22T11:56:16.081Z,1007.32
2022-10-22T11:57:16.060Z,1007.34
2022-10-22T11:58:16.047Z,1007.33
2022-10-22T11:59:16.040Z,1007.31
2022-10-22T12:00:16.044Z,1007.30
2022-10-22T12:01:16.015Z,1007.30
2022-10-22T12:02:15.999Z,1007.31
2022-10-22T12:03:15.993Z,1007.33
2022-10-22T12:04:16.057Z,1007.32
2022-10-22T12:05:15.975Z,1007.31
2022-10-22T12:06:16.022Z,1007.32
2022-10-22T12:07:15.951Z,1007.34
2022-10-22T12:08:15.964Z,1007.33
2022-10-22T12:09:15.966Z,1007.28
2022-10-22T12:10:18.343Z,1007.25
2022-10-22T12:11:15.919Z,1007.21
2022-10-22T12:12:15.908Z,1007.20
2022-10-22T12:13:15.884Z,1007.19